createdAt,value
2022-12-11T00:01:22.358Z,91.41
2022-12-11T00:03:45.096Z,91.80
2022-12-11T00:06:09.656Z,91.99
2022-12-11T00:08:32.235Z,91.31
2022-12-11T00:10:54.849Z,91.60
2022-12-11T00:13:17.448Z,91.56
2022-12-11T00:15:39.960Z,91.65
2022-12-11T00:18:02.821Z,91.40
2022-12-11T00:20:26.148Z,91.06
2022-12-11T00:22:48.828Z,91.38
2022-12-11T00:25:11.834Z,91.73
2022-12-11T00:27:34.736Z,91.43
2022-12-11T00:29:57.509Z,91.55
2022-12-11T00:32:21.015Z,91.23
2022-12-11T00:34:43.546Z,91.55
2022-12-11T00:37:06.223Z,90.78
2022-12-11T00:39:28.914Z,91.47
2022-12-11T00:41:51.526Z,91.32
2022-12-11T00:44:14.118Z,91.45
2022-12-11T00:46:36.966Z,91.30
2022-12-11T00:48:59.503Z,91.23
2022-12-11T00:51:22.233Z,91.70
2022-12-11T00:53:44.827Z,91.38
2022-12-11T00:56:21.807Z,91.10
2022-12-11T00:58:46.084Z,91.47
2022-12-11T01:01:11.032Z,91.09
2022-12-11T01:03:33.791Z,91.48
2022-12-11T01:05:56.445Z,91.47
2022-12-11T01:08:19.273Z,91.41
2022-12-11T01:10:41.980Z,91.26
2022-12-11T01:13:06.731Z,91.27
2022-12-11T01:15:41.519Z,91.19
2022-12-11T01:18:04.968Z,91.42
2022-12-11T01:20:28.239Z,91.50
2022-12-11T01:22:56.967Z,91.69
2022-12-11T01:25:19.824Z,91.39
2022-12-11T01:27:42.593Z,91.37
2022-12-11T01:30:08.037Z,91.76
2022-12-11T01:32:30.769Z,91.23
2022-12-11T01:34:53.418Z,91.70
2022-12-11T01:37:16.004Z,91.85
2022-12-11T01:39:38.904Z,91.37
2022-12-11T01:42:01.807Z,91.42
2022-12-11T01:44:24.240Z,91.20
2022-12-11T01:46:46.822Z,91.40
2022-12-11T01:49:12.509Z,91.31
2022-12-11T01:51:55.372Z,91.34
2022-12-11T01:54:21.089Z,91.38
2022-12-11T01:56:47.564Z,91.60
2022-12-11T01:59:11.418Z,91.77
2022-12-11T02:01:46.608Z,91.64
2022-12-11T02:04:11.261Z,91.46
2022-12-11T02:06:40.105Z,91.25
2022-12-11T02:09:05.574Z,91.39
2022-12-11T02:12:09.361Z,91.57
2022-12-11T02:14:53.434Z,91.91
2022-12-11T02:17:30.838Z,92.42
2022-12-11T02:20:08.485Z,92.10
2022-12-11T02:22:42.495Z,92.18
2022-12-11T02:25:25.853Z,92.11
2022-12-11T02:27:57.366Z,92.20
2022-12-11T02:30:20.468Z,91.91
2022-12-11T02:32:58.686Z,91.94
2022-12-11T02:35:44.960Z,91.86
2022-12-11T02:38:19.820Z,91.50
2022-12-11T02:40:44.518Z,92.04
2022-12-11T02:43:11.632Z,92.02
2022-12-11T02:45:35.040Z,92.13
2022-12-11T02:48:01.106Z,92.02
2022-12-11T02:50:23.955Z,91.78
2022-12-11T02:52:49.846Z,91.65
2022-12-11T02:55:15.521Z,92.07
2022-12-11T02:57:47.894Z,91.86
2022-12-11T03:00:11.553Z,91.79
2022-12-11T03:02:34.246Z,91.85
2022-12-11T03:04:57.829Z,91.79
2022-12-11T03:07:25.647Z,91.98
2022-12-11T03:09:48.707Z,91.77
2022-12-11T03:12:15.085Z,91.80
2022-12-11T03:14:40.179Z,91.82
2022-12-11T03:17:14.934Z,91.88
2022-12-11T03:19:43.205Z,92.09
2022-12-11T03:22:26.220Z,91.80
2022-12-11T03:25:10.767Z,91.87
2022-12-11T03:27:38.118Z,91.97
2022-12-11T03:30:05.453Z,91.90
2022-12-11T03:32:31.511Z,91.87
2022-12-11T03:34:58.206Z,91.87
2022-12-11T03:37:22.781Z,92.16
2022-12-11T03:39:49.914Z,92.10
2022-12-11T03:42:14.880Z,91.78
2022-12-11T03:44:38.220Z,91.86
2022-12-11T03:47:03.344Z,91.70
2022-12-11T03:52:12.587Z,91.34
2022-12-11T03:54:35.664Z,91.28
2022-12-11T03:57:02.086Z,91.22
2022-12-11T03:59:24.799Z,91.18
2022-12-11T04:01:47.545Z,91.02
2022-12-11T04:04:10.284Z,90.93
2022-12-11T04:06:32.924Z,90.99
2022-12-11T04:08:55.463Z,91.07
2022-12-11T04:11:36.908Z,90.86
2022-12-11T04:14:18.385Z,91.11
2022-12-11T04:16:41.223Z,91.10
2022-12-11T04:19:22.889Z,91.18
2022-12-11T04:22:03.750Z,91.10
2022-12-11T04:24:26.304Z,91.08
2022-12-11T04:26:49.757Z,90.61
2022-12-11T04:29:13.377Z,90.91
2022-12-11T04:31:36.373Z,90.92
2022-12-11T04:33:59.110Z,91.04
2022-12-11T04:36:21.828Z,91.13
2022-12-11T04:38:44.448Z,90.79
2022-12-11T04:41:10.030Z,90.86
2022-12-11T04:43:32.683Z,90.44
2022-12-11T04:46:06.763Z,90.92
2022-12-11T04:48:29.936Z,90.96
2022-12-11T04:50:52.461Z,91.04
2022-12-11T04:53:15.058Z,91.16
2022-12-11T04:55:39.329Z,90.73
2022-12-11T04:58:01.956Z,90.85
2022-12-11T05:00:24.689Z,90.87
2022-12-11T05:02:47.226Z,90.71
2022-12-11T05:05:11.326Z,90.56
2022-12-11T05:07:34.066Z,91.00
2022-12-11T05:09:56.616Z,90.82
2022-12-11T05:12:21.888Z,90.62
2022-12-11T05:14:44.731Z,90.26
2022-12-11T05:17:07.338Z,90.24
2022-12-11T05:19:29.948Z,90.39
2022-12-11T05:21:52.648Z,90.37
2022-12-11T05:24:15.332Z,90.26
2022-12-11T05:26:38.860Z,90.33
2022-12-11T05:29:01.440Z,90.52
2022-12-11T05:31:26.690Z,90.32
2022-12-11T05:33:50.461Z,90.01
2022-12-11T05:36:18.389Z,90.33
2022-12-11T05:38:40.838Z,90.29
2022-12-11T05:41:06.428Z,90.27
2022-12-11T05:43:31.499Z,90.56
2022-12-11T05:45:54.940Z,91.04
2022-12-11T05:48:17.554Z,90.91
2022-12-11T05:50:40.159Z,90.55
2022-12-11T05:53:04.776Z,90.60
2022-12-11T05:55:27.727Z,90.45
2022-12-11T05:57:50.322Z,90.10
2022-12-11T06:00:13.739Z,90.40
2022-12-11T06:02:36.489Z,90.11
2022-12-11T06:04:59.201Z,90.59
2022-12-11T06:07:21.684Z,90.48
2022-12-11T06:09:44.379Z,90.32
2022-12-11T06:12:07.095Z,90.32
2022-12-11T06:14:29.830Z,90.14
2022-12-11T06:16:52.641Z,90.17
2022-12-11T06:19:18.025Z,89.96
2022-12-11T06:21:40.806Z,89.72
2022-12-11T06:24:04.351Z,89.89
2022-12-11T06:26:27.746Z,90.02
2022-12-11T06:28:50.419Z,89.50
2022-12-11T06:31:13.426Z,89.69
2022-12-11T06:33:38.487Z,89.63
2022-12-11T06:36:09.330Z,90.01
2022-12-11T06:38:32.809Z,89.82
2022-12-11T06:41:00.216Z,89.81
2022-12-11T06:43:23.209Z,90.06
2022-12-11T06:45:45.875Z,90.23
2022-12-11T06:48:08.487Z,90.41
2022-12-11T06:50:31.082Z,89.93
2022-12-11T06:52:53.787Z,89.89
2022-12-11T06:55:16.366Z,89.55
2022-12-11T06:57:41.984Z,89.66
2022-12-11T07:00:08.463Z,89.72
2022-12-11T07:02:31.145Z,89.39
2022-12-11T07:04:55.401Z,89.36
2022-12-11T07:07:19.902Z,89.12
2022-12-11T07:09:42.682Z,88.91
2022-12-11T07:12:07.115Z,87.98
2022-12-11T07:14:30.836Z,88.83
2022-12-11T07:16:53.474Z,88.89
2022-12-11T07:19:16.042Z,88.28
2022-12-11T07:21:38.752Z,87.95
2022-12-11T07:24:01.402Z,87.56
2022-12-11T07:26:24.009Z,86.74
2022-12-11T07:28:46.751Z,86.82
2022-12-11T07:31:15.486Z,87.18
2022-12-11T07:33:38.120Z,86.78
2022-12-11T07:36:03.318Z,86.43
2022-12-11T07:38:25.832Z,86.16
2022-12-11T07:40:48.886Z,86.36
2022-12-11T07:43:11.388Z,86.38
2022-12-11T07:45:33.948Z,85.78
2022-12-11T07:47:56.647Z,85.35
2022-12-11T07:50:19.909Z,85.15
2022-12-11T07:52:42.589Z,84.64
2022-12-11T07:55:05.776Z,84.71
2022-12-11T07:57:29.276Z,84.34
2022-12-11T07:59:51.903Z,84.23
2022-12-11T08:02:14.477Z,83.24
2022-12-11T08:04:37.428Z,83.50
2022-12-11T08:07:00.112Z,83.98
2022-12-11T08:09:22.772Z,83.46
2022-12-11T08:11:45.386Z,82.80
2022-12-11T08:14:08.852Z,83.48
2022-12-11T08:16:32.137Z,83.51
2022-12-11T08:18:55.065Z,83.00
2022-12-11T08:21:24.556Z,82.99
2022-12-11T08:23:48.240Z,82.69
2022-12-11T08:26:14.700Z,83.10
2022-12-11T08:28:38.033Z,82.55
2022-12-11T08:31:00.885Z,81.92
2022-12-11T08:33:23.856Z,82.55
2022-12-11T08:35:46.673Z,82.89
2022-12-11T08:38:09.270Z,82.34
2022-12-11T08:40:31.847Z,82.24
2022-12-11T08:42:54.716Z,81.70
2022-12-11T08:45:17.289Z,82.38
2022-12-11T08:47:40.105Z,81.47
2022-12-11T08:50:04.832Z,81.68
2022-12-11T08:52:27.649Z,81.83
2022-12-11T08:54:50.173Z,82.11
2022-12-11T08:57:12.864Z,81.64
2022-12-11T08:59:36.944Z,81.88
2022-12-11T09:02:00.126Z,81.59
2022-12-11T09:04:23.372Z,81.73
2022-12-11T09:06:46.011Z,80.09
2022-12-11T09:09:08.556Z,80.05
2022-12-11T09:11:34.124Z,80.20
2022-12-11T09:13:57.595Z,79.81
2022-12-11T09:16:25.009Z,80.41
2022-12-11T09:18:49.219Z,80.22
2022-12-11T09:21:15.032Z,79.55
2022-12-11T09:23:37.809Z,79.33
2022-12-11T09:26:06.188Z,78.91
2022-12-11T09:28:28.753Z,78.79
2022-12-11T09:30:51.853Z,78.25
2022-12-11T09:33:14.584Z,78.98
2022-12-11T09:35:37.611Z,77.99
2022-12-11T09:38:00.140Z,78.15
2022-12-11T09:40:22.685Z,78.34
2022-12-11T09:43:14.340Z,78.10
2022-12-11T09:45:37.116Z,78.25
2022-12-11T09:48:01.122Z,78.67
2022-12-11T09:50:27.250Z,78.34
2022-12-11T09:53:13.712Z,78.25
2022-12-11T09:55:53.144Z,78.61
2022-12-11T09:58:24.476Z,78.18
2022-12-11T10:01:01.062Z,78.36
2022-12-11T10:03:52.260Z,78.41
2022-12-11T10:06:24.275Z,78.01
2022-12-11T10:08:57.183Z,77.55
2022-12-11T10:11:40.168Z,78.18
2022-12-11T10:14:28.774Z,78.62
2022-12-11T10:17:02.976Z,79.03
2022-12-11T10:19:28.986Z,79.50
2022-12-11T10:21:52.847Z,78.58
2022-12-11T10:24:59.386Z,78.81
2022-12-11T10:27:33.242Z,78.10
2022-12-11T10:30:31.608Z,77.64
2022-12-11T10:33:11.649Z,78.44
2022-12-11T10:35:57.521Z,78.66
2022-12-11T10:38:39.306Z,79.14
2022-12-11T10:41:10.355Z,78.18
2022-12-11T10:43:44.242Z,78.83
2022-12-11T10:46:24.537Z,78.12
2022-12-11T10:48:55.728Z,78.94
2022-12-11T10:51:18.279Z,78.62
2022-12-11T10:53:43.667Z,78.50
2022-12-11T10:56:09.430Z,78.25
2022-12-11T10:58:48.828Z,78.43
2022-12-11T11:01:16.330Z,77.52
2022-12-11T11:04:03.236Z,78.23
2022-12-11T11:06:26.934Z,77.99
2022-12-11T11:08:52.979Z,78.55
2022-12-11T11:11:26.355Z,77.56
2022-12-11T11:13:49.672Z,78.33
2022-12-11T11:16:15.809Z,77.57
2022-12-11T11:18:40.943Z,77.92
2022-12-11T11:21:04.026Z,77.45
2022-12-11T11:23:27.613Z,77.48
2022-12-11T11:26:11.417Z,77.84
2022-12-11T11:28:37.525Z,77.60
2022-12-11T11:31:02.580Z,77.20
2022-12-11T11:33:25.742Z,77.52
2022-12-11T11:35:57.891Z,78.08
2022-12-11T11:38:25.114Z,77.16
2022-12-11T11:41:10.121Z,76.81
2022-12-11T11:43:49.811Z,77.25
2022-12-11T11:46:29.428Z,77.60
2022-12-11T11:48:57.187Z,76.99
2022-12-11T11:51:36.267Z,76.94
2022-12-11T11:54:01.902Z,76.88
2022-12-11T11:56:24.607Z,77.27
2022-12-11T11:58:51.133Z,76.46
2022-12-11T12:01:16.396Z,76.68
2022-12-11T12:03:39.095Z,77.50
2022-12-11T12:06:04.570Z,77.54
2022-12-11T12:08:30.057Z,77.58
2022-12-11T12:11:26.007Z,76.78
2022-12-11T12:14:12.847Z,76.39
2022-12-11T12:17:09.726Z,77.04
2022-12-11T12:19:46.210Z,76.89
2022-12-11T12:22:32.133Z,77.00
2022-12-11T12:25:34.969Z,76.95
2022-12-11T12:28:18.764Z,75.78
2022-12-11T12:31:13.493Z,75.51
2022-12-11T12:34:01.021Z,75.77
2022-12-11T12:36:33.377Z,76.85
2022-12-11T12:39:40.600Z,75.48
2022-12-11T12:42:07.876Z,75.74
2022-12-11T12:45:05.041Z,75.82
2022-12-11T12:47:34.000Z,75.94
2022-12-11T12:49:59.881Z,75.54
2022-12-11T12:52:28.734Z,75.99
2022-12-11T12:55:14.597Z,75.66
2022-12-11T12:57:39.799Z,75.86
2022-12-11T13:00:08.115Z,75.48
2022-12-11T13:02:38.385Z,75.54
2022-12-11T13:05:07.745Z,75.58
2022-12-11T13:07:32.796Z,75.16
2022-12-11T13:10:24.294Z,75.76
2022-12-11T13:12:47.785Z,74.80
2022-12-11T13:15:43.976Z,75.25
2022-12-11T13:18:38.784Z,74.95
2022-12-11T13:21:02.747Z,75.50
2022-12-11T13:23:33.359Z,75.65
2022-12-11T13:26:02.413Z,74.43
2022-12-11T13:28:45.759Z,74.90
2022-12-11T13:31:28.583Z,74.53
2022-12-11T13:33:54.749Z,75.16
2022-12-11T13:36:24.320Z,75.33
2022-12-11T13:38:51.947Z,75.24
2022-12-11T13:41:14.862Z,74.67
2022-12-11T13:43:41.974Z,74.69
2022-12-11T13:46:09.498Z,75.07
2022-12-11T13:48:37.898Z,75.05
2022-12-11T13:51:01.732Z,75.47
2022-12-11T13:53:24.421Z,75.05
2022-12-11T13:56:00.253Z,75.00
2022-12-11T13:58:23.923Z,74.80
2022-12-11T14:01:08.402Z,75.25
2022-12-11T14:03:32.534Z,75.74
2022-12-11T14:05:55.317Z,75.90
2022-12-11T14:08:23.765Z,75.58
2022-12-11T14:10:52.555Z,75.26
2022-12-11T14:13:25.220Z,75.79
2022-12-11T14:15:48.238Z,75.81
2022-12-11T14:18:18.013Z,75.27
2022-12-11T14:20:40.736Z,75.11
2022-12-11T14:23:22.241Z,75.43
2022-12-11T14:25:59.489Z,75.57
2022-12-11T14:28:23.409Z,75.25
2022-12-11T14:30:52.457Z,75.43
2022-12-11T14:33:16.476Z,75.86
2022-12-11T14:35:43.005Z,75.95
2022-12-11T14:38:16.629Z,76.49
2022-12-11T14:40:43.526Z,76.73
2022-12-11T14:43:23.471Z,76.07
2022-12-11T14:45:49.588Z,76.51
2022-12-11T14:48:18.356Z,76.55
2022-12-11T14:50:48.104Z,76.21
2022-12-11T14:53:15.733Z,76.51
2022-12-11T14:55:40.116Z,77.05
2022-12-11T14:58:07.694Z,77.13
2022-12-11T15:00:35.967Z,77.28
2022-12-11T15:03:05.594Z,77.16
2022-12-11T15:05:29.492Z,77.06
2022-12-11T15:08:03.875Z,77.17
2022-12-11T15:10:35.662Z,76.54
2022-12-11T15:12:58.733Z,77.31
2022-12-11T15:15:21.618Z,77.07
2022-12-11T15:17:48.354Z,76.87
2022-12-11T15:20:27.072Z,77.82
2022-12-11T15:22:50.799Z,77.63
2022-12-11T15:25:22.670Z,76.58
2022-12-11T15:27:45.403Z,77.40
2022-12-11T15:30:26.896Z,77.85
2022-12-11T15:32:49.736Z,77.70
2022-12-11T15:35:24.555Z,77.35
2022-12-11T15:37:56.301Z,77.07
2022-12-11T15:40:19.013Z,76.79
2022-12-11T15:42:42.302Z,76.79
2022-12-11T15:45:15.641Z,76.47
2022-12-11T15:47:38.362Z,76.48
2022-12-11T15:50:07.811Z,76.78
2022-12-11T15:52:31.080Z,76.58
2022-12-11T15:54:54.022Z,76.01
2022-12-11T15:57:21.194Z,76.41
2022-12-11T15:59:48.935Z,75.90
2022-12-11T16:02:13.147Z,75.85
2022-12-11T16:04:35.725Z,75.46
2022-12-11T16:06:58.352Z,75.92
2022-12-11T16:09:21.277Z,75.52
2022-12-11T16:11:43.937Z,75.29
2022-12-11T16:14:06.527Z,75.88
2022-12-11T16:16:30.191Z,75.64
2022-12-11T16:18:52.882Z,75.98
2022-12-11T16:21:21.170Z,75.43
2022-12-11T16:23:44.049Z,75.41
2022-12-11T16:26:09.618Z,75.81
2022-12-11T16:28:32.231Z,75.48
2022-12-11T16:30:55.033Z,75.69
2022-12-11T16:33:17.884Z,75.75
2022-12-11T16:35:42.043Z,76.17
2022-12-11T16:38:04.844Z,75.69
2022-12-11T16:40:27.608Z,76.38
2022-12-11T16:42:52.953Z,76.65
2022-12-11T16:45:25.391Z,76.04
2022-12-11T16:47:48.696Z,75.57
2022-12-11T16:50:14.152Z,75.25
2022-12-11T16:52:37.287Z,75.48
2022-12-11T16:54:59.893Z,75.76
2022-12-11T16:57:22.945Z,75.20
2022-12-11T16:59:47.832Z,74.93
2022-12-11T17:02:11.753Z,75.11
2022-12-11T17:04:34.439Z,75.52
2022-12-11T17:06:57.041Z,75.19
2022-12-11T17:09:19.599Z,74.84
2022-12-11T17:11:42.200Z,75.59
2022-12-11T17:14:04.700Z,75.89
2022-12-11T17:16:32.430Z,75.51
2022-12-11T17:18:55.649Z,75.70
2022-12-11T17:21:19.964Z,75.93
2022-12-11T17:23:44.035Z,75.38
2022-12-11T17:26:10.597Z,75.65
2022-12-11T17:28:33.408Z,75.42
2022-12-11T17:30:56.468Z,75.32
2022-12-11T17:33:19.245Z,75.34
2022-12-11T17:35:42.143Z,75.40
2022-12-11T17:38:05.054Z,75.13
2022-12-11T17:40:29.257Z,75.64
2022-12-11T17:42:52.547Z,76.15
2022-12-11T17:45:15.403Z,75.63
2022-12-11T17:47:39.263Z,75.92
2022-12-11T17:50:02.148Z,75.11
2022-12-11T17:52:28.384Z,75.37
2022-12-11T17:54:54.504Z,75.27
2022-12-11T17:57:17.065Z,75.92
2022-12-11T17:59:40.348Z,75.82
2022-12-11T18:02:03.539Z,75.91
2022-12-11T18:04:26.299Z,75.96
2022-12-11T18:06:49.277Z,75.81
2022-12-11T18:09:12.523Z,75.82
2022-12-11T18:11:36.661Z,75.86
2022-12-11T18:13:59.721Z,76.07
2022-12-11T18:16:25.441Z,75.92
2022-12-11T18:18:48.892Z,76.22
2022-12-11T18:21:27.032Z,76.97
2022-12-11T18:23:50.932Z,76.75
2022-12-11T18:26:14.780Z,76.31
2022-12-11T18:28:37.703Z,77.11
2022-12-11T18:31:02.076Z,77.65
2022-12-11T18:33:24.942Z,77.96
2022-12-11T18:35:50.370Z,77.59
2022-12-11T18:38:13.257Z,78.71
2022-12-11T18:40:36.100Z,78.95
2022-12-11T18:42:59.288Z,78.91
2022-12-11T18:45:22.019Z,79.10
2022-12-11T18:47:44.912Z,78.54
2022-12-11T18:50:08.480Z,78.65
2022-12-11T18:52:31.448Z,78.83
2022-12-11T18:54:54.600Z,79.50
2022-12-11T18:57:18.070Z,79.02
2022-12-11T18:59:42.335Z,79.65
2022-12-11T19:02:05.524Z,79.90
2022-12-11T19:04:28.441Z,79.90
2022-12-11T19:06:51.307Z,79.90
2022-12-11T19:09:14.129Z,79.72
2022-12-11T19:11:40.077Z,79.19
2022-12-11T19:14:05.057Z,79.66
2022-12-11T19:16:36.682Z,79.57
2022-12-11T19:19:00.810Z,79.56
2022-12-11T19:21:23.871Z,79.55
2022-12-11T19:23:47.773Z,79.87
2022-12-11T19:26:15.757Z,80.03
2022-12-11T19:28:38.680Z,79.73
2022-12-11T19:31:01.853Z,79.34
2022-12-11T19:33:24.888Z,79.39
2022-12-11T19:35:48.224Z,80.12
2022-12-11T19:38:12.985Z,80.09
2022-12-11T19:40:45.640Z,79.47
2022-12-11T19:43:08.667Z,79.04
2022-12-11T19:45:31.486Z,79.01
2022-12-11T19:47:54.276Z,79.15
2022-12-11T19:50:17.413Z,79.48
2022-12-11T19:52:45.991Z,79.59
2022-12-11T19:55:10.889Z,78.82
2022-12-11T19:57:35.144Z,78.47
2022-12-11T19:59:59.730Z,78.52
2022-12-11T20:02:22.824Z,78.55
2022-12-11T20:04:45.684Z,78.99
2022-12-11T20:07:08.528Z,78.75
2022-12-11T20:09:33.705Z,78.66
2022-12-11T20:11:56.857Z,79.49
2022-12-11T20:14:23.127Z,78.67
2022-12-11T20:17:10.123Z,78.87
2022-12-11T20:19:32.105Z,78.89
2022-12-11T20:21:56.074Z,79.04
2022-12-11T20:24:20.017Z,79.53
2022-12-11T20:26:43.005Z,79.36
2022-12-11T20:29:08.414Z,79.64
2022-12-11T20:31:31.572Z,79.71
2022-12-11T20:33:56.483Z,80.18
2022-12-11T20:36:20.981Z,79.87
2022-12-11T20:38:43.529Z,79.48
2022-12-11T20:41:09.717Z,79.42
2022-12-11T20:43:32.741Z,79.09
2022-12-11T20:45:55.584Z,78.96
2022-12-11T20:48:18.449Z,79.31
2022-12-11T20:50:41.545Z,79.70
2022-12-11T20:53:04.460Z,78.95
2022-12-11T20:55:26.995Z,79.60
2022-12-11T20:57:50.063Z,80.17
2022-12-11T21:00:15.774Z,79.50
2022-12-11T21:02:40.192Z,79.73
2022-12-11T21:05:03.343Z,79.98
2022-12-11T21:07:26.180Z,80.61
2022-12-11T21:09:48.960Z,80.67
2022-12-11T21:12:11.692Z,80.61
2022-12-11T21:14:35.424Z,80.51
2022-12-11T21:16:59.168Z,80.40
2022-12-11T21:19:23.046Z,80.85
2022-12-11T21:21:46.657Z,80.82
2022-12-11T21:24:16.031Z,80.69
2022-12-11T21:26:38.792Z,81.51
2022-12-11T21:29:01.616Z,80.99
2022-12-11T21:31:24.942Z,81.74
2022-12-11T21:33:48.310Z,82.37
2022-12-11T21:36:13.075Z,82.35
2022-12-11T21:38:35.709Z,81.69
2022-12-11T21:41:05.977Z,81.59
2022-12-11T21:43:28.526Z,81.70
2022-12-11T21:46:01.434Z,81.74
2022-12-11T21:48:24.551Z,81.46
2022-12-11T21:50:47.300Z,82.22
2022-12-11T21:53:09.923Z,81.33
2022-12-11T21:55:32.525Z,81.39
2022-12-11T21:57:55.504Z,81.08
2022-12-11T22:00:18.669Z,81.02
2022-12-11T22:02:41.664Z,82.11
2022-12-11T22:05:04.518Z,80.90
2022-12-11T22:07:27.205Z,81.32
2022-12-11T22:09:50.228Z,82.39
2022-12-11T22:12:28.267Z,83.41
2022-12-11T22:14:51.120Z,84.27
2022-12-11T22:17:13.946Z,83.82
2022-12-11T22:19:40.998Z,84.87
2022-12-11T22:22:03.540Z,84.51
2022-12-11T22:24:26.227Z,85.47
2022-12-11T22:26:49.421Z,85.49
2022-12-11T22:29:12.106Z,84.69
2022-12-11T22:31:34.628Z,84.15
2022-12-11T22:33:57.491Z,83.99
2022-12-11T22:36:21.464Z,84.74
2022-12-11T22:38:44.067Z,86.01
2022-12-11T22:41:30.754Z,84.71
2022-12-11T22:43:54.478Z,85.61
2022-12-11T22:46:19.615Z,84.58
2022-12-11T22:48:42.369Z,85.26
2022-12-11T22:51:06.458Z,85.16
2022-12-11T22:53:29.149Z,85.27
2022-12-11T22:55:51.636Z,83.70
2022-12-11T22:58:20.039Z,83.99
2022-12-11T23:00:44.402Z,83.15
2022-12-11T23:03:07.580Z,83.59
2022-12-11T23:05:30.370Z,84.12
2022-12-11T23:07:53.027Z,83.91
2022-12-11T23:10:15.715Z,83.67
2022-12-11T23:12:38.953Z,83.48
2022-12-11T23:15:01.935Z,83.34
2022-12-11T23:17:24.669Z,83.34
2022-12-11T23:19:50.847Z,83.80
2022-12-11T23:22:13.658Z,83.41
2022-12-11T23:24:36.218Z,82.78
2022-12-11T23:27:00.179Z,82.71
2022-12-11T23:29:22.921Z,82.80
2022-12-11T23:31:46.466Z,82.68
2022-12-11T23:34:09.144Z,83.02
2022-12-11T23:36:31.768Z,81.67
2022-12-11T23:38:55.221Z,81.99
2022-12-11T23:41:18.627Z,81.11
2022-12-11T23:43:42.489Z,80.93
2022-12-11T23:46:10.779Z,80.58
2022-12-11T23:48:33.856Z,80.18
2022-12-11T23:51:01.122Z,80.53
2022-12-11T23:53:23.695Z,81.02
2022-12-11T23:55:46.421Z,79.84
2022-12-11T23:58:10.653Z,79.55
